• Join FlightAware (Why Join?)
  • Login
  • US Flag 
09:13AM EDT


 

Airport Tracker/Info


-or-


 

Live Flight TrackerFlight Track Log ✈ SWA2130 ✈ 22-Jun-2013 ✈ KPHX - KDTW

Flight Track Log - Related Links

Times and Time Zones

All times are in EDT time to prevent confusion due to time zone crossing. See the SWA2130 flight status page for this flight to view local times or setup timezone preferences in your user account.

Time Position Orientation Groundspeed Altitude Reporting Facility
EDT Latitude Longitude Course Direction KTS MPH feet Rate Location/Type
08:34PM 33.4333 -112.0333 248° West 169 194 1,900  Level Phoenix TRACON
08:35PM 33.4167 -112.0833 248° West 199 229 3,400 2,160 Climbing Phoenix TRACON
08:36PM 33.4000 -112.1667 257° West 229 264 6,100 2,220 Climbing Phoenix TRACON
08:37PM 33.3558 -112.1853 199° South 272 313 7,300 1,140 Climbing Albuquerque Center
08:38PM 33.2861 -112.1414 152° Southeast 284 327 8,000 1,260 Climbing Albuquerque Center
08:39PM 33.2467 -112.0611 120° Southeast 293 337 10,000 1,740 Climbing Albuquerque Center
08:40PM 33.2686 -111.9572 76° East 347 399 11,600 2,220 Climbing Albuquerque Center
08:41PM 33.3131 -111.8478 64° Northeast 368 423 14,600 2,520 Climbing Albuquerque Center
08:42PM 33.3594 -111.7350 64° Northeast 379 436 16,800 2,220 Climbing Albuquerque Center
08:43PM 33.4075 -111.6144 64° Northeast 400 460 19,200 2,400 Climbing Albuquerque Center
08:44PM 33.4553 -111.4556 70° East 427 491 21,800 2,220 Climbing Albuquerque Center
08:45PM 33.4947 -111.3197 71° East 434 499 23,800 1,740 Climbing Albuquerque Center
08:46PM 33.5356 -111.1775 71° East 451 519 25,400 1,680 Climbing Albuquerque Center
08:47PM 33.5789 -111.0256 71° East 469 540 27,300 1,860 Climbing Albuquerque Center
08:48PM 33.6208 -110.8803 71° East 475 547 29,300 1,740 Climbing Albuquerque Center
08:49PM 33.6633 -110.7303 71° East 476 548 30,900 1,500 Climbing Albuquerque Center
08:50PM 33.7047 -110.5797 72° East 477 549 32,400 1,200 Climbing Albuquerque Center
08:51PM 33.7558 -110.3942 72° East 486 559 33,400 1,080 Climbing Albuquerque Center
08:52PM 33.7956 -110.2508 72° East 498 573 34,700 1,260 Climbing Albuquerque Center
08:53PM 33.8408 -110.0939 71° East 500 575 36,100 1,080 Climbing Albuquerque Center
08:54PM 33.8842 -109.9369 72° East 499 574 37,000 420 Climbing Albuquerque Center
08:55PM 33.9353 -109.7489 72° East 496 571 37,000  Level Albuquerque Center
08:56PM 33.9781 -109.5919 72° East 495 570 37,000  Level Albuquerque Center
08:57PM 34.0206 -109.4369 72° East 493 567 37,000  Level Albuquerque Center
08:58PM 34.0614 -109.2825 72° East 489 563 37,000  Level Albuquerque Center
08:59PM 34.1036 -109.1261 72° East 491 565 37,000  Level Albuquerque Center
09:00PM 34.1447 -108.9692 72° East 492 566 37,000  Level Albuquerque Center
09:01PM 34.1853 -108.8147 72° East 489 563 37,000  Level Albuquerque Center
09:02PM 34.2272 -108.6608 72° East 487 560 37,000  Level Albuquerque Center
09:03PM 34.2753 -108.4736 73° East 489 563 37,000  Level Albuquerque Center
09:04PM 34.3117 -108.3389 72° East 489 563 37,000  Level Albuquerque Center
09:05PM 34.3600 -108.1492 73° East 491 565 37,000  Level Albuquerque Center
09:06PM 34.4000 -107.9900 73° East 494 568 37,000  Level Albuquerque Center
09:08PM 34.4406 -107.8322 73° East 492 566 37,000  Level Albuquerque Center
09:09PM 34.4800 -107.6728 73° East 495 570 37,000  Level Albuquerque Center
09:10PM 34.5208 -107.5133 73° East 495 570 37,000  Level Albuquerque Center
09:11PM 34.5606 -107.3553 73° East 494 568 37,000  Level Albuquerque Center
09:12PM 34.6000 -107.1956 73° East 496 571 37,000  Level Albuquerque Center
09:13PM 34.6386 -107.0364 74° East 496 571 37,000  Level Albuquerque Center
09:14PM 34.6839 -106.8461 74° East 494 568 37,000  Level Albuquerque Center
09:15PM 34.7217 -106.6878 74° East 495 570 37,000  Level Albuquerque Center
09:16PM 34.7614 -106.5283 73° East 496 571 37,000  Level Albuquerque Center
09:17PM 34.7992 -106.3692 74° East 495 570 37,000  Level Albuquerque Center
09:18PM 34.8381 -106.2092 73° East 495 570 37,000  Level Albuquerque Center
09:19PM 34.8761 -106.0489 74° East 496 571 37,000  Level Albuquerque Center
09:20PM 34.9181 -105.8692 74° East 493 567 37,000  Level Albuquerque Center
09:21PM 34.9558 -105.7061 74° East 495 570 37,000 360 Level Albuquerque Center
09:22PM 34.9947 -105.5433 74° East 496 571 37,800 780 Climbing Albuquerque Center
09:23PM 35.0325 -105.3797 74° East 497 572 38,700 540 Climbing Albuquerque Center
09:24PM 35.0706 -105.2167 74° East 495 570 39,000 120 Climbing Albuquerque Center
09:25PM 35.1097 -105.0531 74° East 497 572 39,000  Level Albuquerque Center
09:26PM 35.1925 -104.8783 60° Northeast 500 575 39,000  Level Albuquerque Center
09:27PM 35.2658 -104.7303 59° Northeast 501 577 39,000  Level Albuquerque Center
09:28PM 35.3414 -104.5814 58° Northeast 505 581 39,000  Level Albuquerque Center
09:29PM 35.4172 -104.4311 58° Northeast 507 583 39,000  Level Albuquerque Center
09:30PM 35.4925 -104.2789 59° Northeast 510 587 39,000  Level Albuquerque Center
09:31PM 35.5672 -104.1267 59° Northeast 509 586 39,000  Level Albuquerque Center
09:32PM 35.6406 -103.9761 59° Northeast 508 585 39,000  Level Albuquerque Center
09:33PM 35.7133 -103.8258 59° Northeast 506 582 39,000  Level Albuquerque Center
09:34PM 35.7861 -103.6753 59° Northeast 506 582 39,000  Level Albuquerque Center
09:35PM 35.8589 -103.5258 59° Northeast 505 581 39,000  Level Albuquerque Center
09:36PM 35.9306 -103.3761 59° Northeast 502 578 39,000  Level Albuquerque Center
09:37PM 36.0028 -103.2250 59° Northeast 505 581 39,000  Level Albuquerque Center
09:38PM 36.0733 -103.0769 59° Northeast 498 573 39,000  Level Albuquerque Center
09:39PM 36.1439 -102.9275 60° Northeast 498 573 39,000  Level Albuquerque Center
09:40PM 36.2100 -102.7883 59° Northeast 504 580 39,000  Level Albuquerque Center
09:41PM 36.2928 -102.6103 60° Northeast 499 574 39,000  Level Albuquerque Center
09:42PM 36.3642 -102.4589 60° Northeast 503 579 39,000  Level Albuquerque Center
09:43PM 36.4350 -102.3075 60° Northeast 506 582 39,000  Level Albuquerque Center
09:44PM 36.5050 -102.1556 60° Northeast 506 582 39,000  Level Albuquerque Center
09:45PM 36.5747 -102.0067 60° Northeast 501 577 39,000  Level Albuquerque Center
09:46PM 36.6458 -101.8539 60° Northeast 503 579 39,000  Level Albuquerque Center
09:47PM 36.7208 -101.6858 61° Northeast 500 575 39,000  Level Albuquerque Center
09:48PM 36.7869 -101.5436 60° Northeast 498 573 39,000  Level Albuquerque Center
09:49PM 36.8508 -101.3994 61° Northeast 496 571 39,000  Level Albuquerque Center
09:51PM 36.9372 -101.2072 61° Northeast 498 573 39,000  Level Kansas City Center
09:52PM 37.0033 -101.0628 60° Northeast 501 577 39,000  Level Kansas City Center
09:53PM 37.0631 -100.9144 63° Northeast 501 577 39,000  Level Kansas City Center
09:54PM 37.1308 -100.7400 64° Northeast 502 578 39,000  Level Kansas City Center
09:55PM 37.1881 -100.5919 64° Northeast 499 574 39,000  Level Kansas City Center
09:56PM 37.2531 -100.4214 64° Northeast 492 566 39,000  Level Kansas City Center
09:57PM 37.3100 -100.2756 64° Northeast 491 565 39,000  Level Kansas City Center
09:58PM 37.3658 -100.1306 64° Northeast 486 559 39,000  Level Kansas City Center
09:59PM 37.4311 -99.9578 65° Northeast 490 564 39,000  Level Kansas City Center
10:00PM 37.4867 -99.8106 65° Northeast 489 563 39,000  Level Kansas City Center
10:01PM 37.5511 -99.6386 65° Northeast 489 563 39,000  Level Kansas City Center
10:02PM 37.6092 -99.4900 64° Northeast 494 568 39,000  Level Kansas City Center
10:03PM 37.6672 -99.3353 65° Northeast 489 563 39,000  Level Kansas City Center
10:04PM 37.7239 -99.1811 65° Northeast 484 557 39,000  Level Kansas City Center
10:05PM 37.7800 -99.0275 65° Northeast 483 556 39,000  Level Kansas City Center
10:06PM 37.8358 -98.8731 65° Northeast 483 556 39,000  Level Kansas City Center
10:07PM 37.8919 -98.7186 65° Northeast 482 555 39,000  Level Kansas City Center
10:08PM 37.9475 -98.5664 65° Northeast 478 550 39,000  Level Kansas City Center
10:09PM 38.0039 -98.4100 65° Northeast 483 556 39,000  Level Kansas City Center
10:10PM 38.0614 -98.2536 65° Northeast 486 559 39,000  Level Kansas City Center
10:11PM 38.1264 -98.0622 67° East 488 562 39,000  Level Kansas City Center
10:12PM 38.1761 -97.9322 64° Northeast 486 559 39,000  Level Kansas City Center
10:13PM 38.2314 -97.7731 66° East 485 558 39,000  Level Kansas City Center
10:14PM 38.2864 -97.6161 66° East 484 557 39,000  Level Kansas City Center
10:15PM 38.3414 -97.4592 66° East 484 557 39,000  Level Kansas City Center
10:16PM 38.4069 -97.2706 66° East 485 558 39,000  Level Kansas City Center
10:17PM 38.4614 -97.1122 66° East 488 562 39,000  Level Kansas City Center
10:18PM 38.5158 -96.9542 66° East 487 560 39,000  Level Kansas City Center
10:19PM 38.5722 -96.7867 67° East 485 558 39,000  Level Kansas City Center
10:20PM 38.6242 -96.6358 66° East 483 556 39,000  Level Kansas City Center
10:21PM 38.6750 -96.4831 67° East 487 560 39,000  Level Kansas City Center
10:22PM 38.7350 -96.3056 67° East 489 563 39,000  Level Kansas City Center
10:23PM 38.7867 -96.1536 66° East 487 560 39,000  Level Kansas City Center
10:24PM 38.8364 -96.0014 67° East 483 556 39,000  Level Kansas City Center
10:25PM 38.8947 -95.8250 67° East 481 554 39,000  Level Kansas City Center
10:26PM 38.9447 -95.6733 67° East 481 554 39,000  Level Kansas City Center
10:27PM 38.9942 -95.5253 67° East 475 547 39,000  Level Kansas City Center
10:28PM 39.0514 -95.3456 68° East 471 542 39,000  Level Kansas City Center
10:29PM 39.1000 -95.1911 68° East 468 539 39,000  Level Kansas City Center
10:30PM 39.1508 -95.0367 67° East 471 542 39,000  Level Kansas City Center
10:31PM 39.1983 -94.8886 67° East 471 542 39,000  Level Kansas City Center
10:32PM 39.2544 -94.7139 67° East 474 545 39,000  Level Kansas City Center
10:33PM 39.3031 -94.5644 67° East 475 547 39,000  Level Kansas City Center
10:34PM 39.3497 -94.4158 68° East 467 537 39,000  Level Kansas City Center
10:35PM 39.4042 -94.2419 68° East 467 537 39,000  Level Kansas City Center
10:36PM 39.4506 -94.0917 68° East 470 541 39,000  Level Kansas City Center
10:37PM 39.4961 -93.9433 68° East 464 534 39,000  Level Kansas City Center
10:38PM 39.5492 -93.7744 68° East 453 521 39,000  Level Kansas City Center
10:39PM 39.5964 -93.6153 69° East 452 520 39,000  Level Kansas City Center
10:40PM 39.6419 -93.4650 68° East 452 520 39,000  Level Kansas City Center
10:42PM 39.6881 -93.3167 68° East 451 519 39,000  Level Kansas City Center
10:43PM 39.7328 -93.1656 69° East 454 522 39,000  Level Kansas City Center
10:44PM 39.7789 -93.0131 68° East 457 526 39,000  Level Kansas City Center
10:45PM 39.8225 -92.8608 70° East 455 524 39,000  Level Kansas City Center
10:46PM 39.8669 -92.7086 69° East 456 525 39,000  Level Kansas City Center
10:47PM 39.9122 -92.5553 69° East 461 531 39,000  Level Kansas City Center
10:48PM 39.9656 -92.3725 69° East 459 528 39,000  Level Kansas City Center
10:49PM 40.0086 -92.2242 69° East 452 520 39,000  Level Kansas City Center
10:50PM 40.0514 -92.0753 69° East 447 514 39,000  Level Kansas City Center
10:51PM 40.0933 -91.9272 70° East 444 511 39,000  Level Kansas City Center
10:52PM 40.1367 -91.7800 69° East 441 507 39,000  Level Kansas City Center
10:53PM 40.1775 -91.6314 70° East 439 505 39,000  Level Kansas City Center
10:54PM 40.2197 -91.4850 69° East 437 503 39,000  Level Kansas City Center
10:55PM 40.2689 -91.3078 70° East 436 502 39,000  Level Kansas City Center
10:56PM 40.3089 -91.1642 70° East 436 502 39,000  Level Kansas City Center
10:57PM 40.3503 -91.0150 70° East 436 502 39,000  Level Kansas City Center
10:58PM 40.3922 -90.8650 70° East 438 504 39,000  Level Kansas City Center
10:59PM 40.4333 -90.7158 70° East 436 502 39,000  Level Kansas City Center
11:00PM 40.4744 -90.5667 70° East 436 502 39,000  Level Kansas City Center
11:01PM 40.5147 -90.4172 70° East 435 501 39,000  Level Kansas City Center
11:02PM 40.5533 -90.2697 71° East 431 496 39,000  Level Kansas City Center
11:03PM 40.5914 -90.1281 70° East 427 491 39,000  Level Kansas City Center
11:04PM 40.6367 -89.9567 71° East 419 482 39,000  Level Kansas City Center
11:05PM 40.6717 -89.8294 70° East 423 487 39,000  Level Kansas City Center
11:06PM 40.7139 -89.6833 69° East 426 490 39,000  Level Kansas City Center
11:07PM 40.7619 -89.5431 66° East 425 489 39,000  Level Kansas City Center
11:08PM 40.8308 -89.3364 66° East 419 482 39,000  Level Chicago Center
11:09PM 40.8756 -89.1975 67° East 416 479 39,000  Level Chicago Center
11:10PM 40.9222 -89.0553 66° East 421 484 39,000  Level Chicago Center
11:11PM 40.9694 -88.9142 66° East 422 486 39,000  Level Chicago Center
11:12PM 41.0122 -88.7758 68° East 411 473 39,000  Level Chicago Center
11:13PM 41.0586 -88.6353 66° East 417 480 39,000  Level Chicago Center
11:14PM 41.1128 -88.4614 67° East 425 489 39,000  Level Chicago Center
11:15PM 41.1578 -88.3197 67° East 423 487 39,000  Level Chicago Center
11:16PM 41.2019 -88.1794 67° East 419 482 39,000  Level Chicago Center
11:17PM 41.2469 -88.0369 67° East 423 487 39,000  Level Chicago Center
11:18PM 41.2894 -87.8931 68° East 432 497 39,000  Level Chicago Center
11:19PM 41.3358 -87.7503 67° East 432 497 39,000 -540 Level Chicago Center
11:20PM 41.3814 -87.6061 67° East 430 495 38,000 -1,080 Descending Chicago Center
11:21PM 41.4364 -87.4294 67° East 435 501 36,900 -1,020 Descending Chicago Center
11:22PM 41.4811 -87.2814 68° East 436 502 36,000 -960 Descending Chicago Center
11:23PM 41.5275 -87.1297 68° East 445 512 35,000 -960 Descending Chicago Center
11:24PM 41.5736 -86.9756 68° East 449 517 34,100 -960 Descending Chicago Center
11:25PM 41.6192 -86.8192 69° East 453 521 33,100 -600 Descending Chicago Center
11:26PM 41.6678 -86.6556 68° East 459 528 33,000 -60 Descending Chicago Center
11:27PM 41.7147 -86.5003 68° East 453 521 33,000  Level Chicago Center
11:28PM 41.7617 -86.3417 68° East 456 525 33,000  Level Chicago Center
11:30PM 41.7972 -86.1786 74° East 456 525 33,000 -60 Level Chicago Center
11:31PM 41.8283 -86.0122 76° East 459 528 32,900 -1,440 Descending Chicago Center
11:32PM 41.8600 -85.8461 76° East 459 528 30,200 -2,640 Descending Chicago Center
11:33PM 41.8931 -85.6794 75° East 458 527 27,600 -2,520 Descending Chicago Center
11:34PM 41.9239 -85.5167 76° East 447 514 25,200 -2,400 Descending Chicago Center
11:35PM 41.9531 -85.3606 76° East 429 494 22,800 -2,340 Descending Chicago Center
11:36PM 41.9817 -85.2097 76° East 415 478 20,600 -1,920 Descending Chicago Center
11:37PM 42.0050 -85.0836 76° East 407 468 19,000 -840 Descending Chicago Center
11:38PM 42.0344 -84.9158 77° East 390 449 19,000 -660 Level Chicago Center
11:39PM 42.0539 -84.7797 79° East 377 434 17,700 -1,260 Descending Chicago Center
11:40PM 42.0692 -84.6447 81° East 369 425 16,500 -1,260 Descending Chicago Center
11:41PM 42.0850 -84.5117 81° East 363 418 15,200 -1,260 Descending Chicago Center
11:42PM 42.1008 -84.3825 81° East 356 410 14,000 -1,200 Descending Chicago Center
11:42PM 42.1108 -84.2864 82° East 347 399 13,100 -1,260 Descending Cleveland Center
11:43PM 42.1417 -84.1650 71° East 349 402 11,900 -1,140 Descending Cleveland Center
11:44PM 42.1703 -84.0517 71° East 346 398 11,000 -900 Descending Cleveland Center
11:45PM 42.2028 -83.9358 69° East 330 380 10,200 -1,080 Descending Cleveland Center
11:46PM 42.2311 -83.8194 72° East 300 345 8,900 -1,380 Descending Cleveland Center
11:47PM 42.2569 -83.7142 72° East 301 346 7,400 -1,500 Descending Cleveland Center
11:48PM 42.2850 -83.6089 70° East 300 345 5,900 -1,500 Descending Cleveland Center
11:49PM 42.3128 -83.5006 71° East 300 345 4,400 -1,380 Descending Cleveland Center
11:50PM 42.3383 -83.3950 72° East 295 339 3,100 -960 Descending Cleveland Center
11:51PM 42.3236 -83.3072 103° East 238 274 2,500 -660 Descending Cleveland Center
11:52PM 42.2836 -83.3253 198° South 151 174 1,900 -660 Descending Cleveland Center
11:53PM 42.2497 -83.3519 210° Southwest 120 138 1,200 -660 Descending Cleveland Center
11:55PM 42.2124 -83.3534 197° South  Level Estimated